sensor_id;sensor_type;location;lat;lon;timestamp;pressure;altitude;pressure_sealevel;temperature;humidity
46946;BME280;32679;40.810;14.498;2022-08-19T00:02:21;99433.69;;;28.10;42.64
46946;BME280;32679;40.810;14.498;2022-08-19T00:04:47;99428.38;;;28.24;42.53
46946;BME280;32679;40.810;14.498;2022-08-19T00:07:17;99425.84;;;28.31;43.83
46946;BME280;32679;40.810;14.498;2022-08-19T00:09:42;99437.25;;;28.05;44.47
46946;BME280;32679;40.810;14.498;2022-08-19T00:12:08;99437.00;;;28.03;45.04
46946;BME280;32679;40.810;14.498;2022-08-19T00:14:33;99430.84;;;27.90;44.99
46946;BME280;32679;40.810;14.498;2022-08-19T00:17:00;99447.44;;;27.86;45.37
46946;BME280;32679;40.810;14.498;2022-08-19T00:19:25;99422.97;;;27.85;45.44
46946;BME280;32679;40.810;14.498;2022-08-19T00:21:51;99413.19;;;27.71;45.36
46946;BME280;32679;40.810;14.498;2022-08-19T00:24:17;99389.66;;;27.61;46.04
46946;BME280;32679;40.810;14.498;2022-08-19T00:26:42;99411.22;;;27.62;45.87
46946;BME280;32679;40.810;14.498;2022-08-19T00:29:09;99459.78;;;27.62;46.39
46946;BME280;32679;40.810;14.498;2022-08-19T00:31:34;99487.84;;;27.79;46.24
46946;BME280;32679;40.810;14.498;2022-08-19T00:34:00;99495.47;;;28.02;45.79
46946;BME280;32679;40.810;14.498;2022-08-19T00:36:26;99488.38;;;28.18;49.21
46946;BME280;32679;40.810;14.498;2022-08-19T00:38:53;99468.97;;;28.28;52.83
46946;BME280;32679;40.810;14.498;2022-08-19T00:41:19;99450.91;;;28.36;54.79
46946;BME280;32679;40.810;14.498;2022-08-19T00:46:23;99426.47;;;28.61;56.15
46946;BME280;32679;40.810;14.498;2022-08-19T00:48:49;99410.34;;;28.64;56.89
46946;BME280;32679;40.810;14.498;2022-08-19T00:51:14;99425.50;;;28.70;58.04
46946;BME280;32679;40.810;14.498;2022-08-19T00:53:39;99461.69;;;28.73;59.21
46946;BME280;32679;40.810;14.498;2022-08-19T00:56:05;99471.78;;;28.68;61.15
46946;BME280;32679;40.810;14.498;2022-08-19T00:58:32;99468.38;;;28.64;62.65
46946;BME280;32679;40.810;14.498;2022-08-19T01:00:59;99469.72;;;28.69;64.68
46946;BME280;32679;40.810;14.498;2022-08-19T01:03:25;99493.84;;;28.62;65.48
46946;BME280;32679;40.810;14.498;2022-08-19T01:05:50;99501.94;;;28.64;67.21
46946;BME280;32679;40.810;14.498;2022-08-19T01:08:17;99500.31;;;28.57;68.56
46946;BME280;32679;40.810;14.498;2022-08-19T01:10:45;99518.47;;;28.54;70.78
46946;BME280;32679;40.810;14.498;2022-08-19T01:13:13;99546.59;;;28.56;71.81
46946;BME280;32679;40.810;14.498;2022-08-19T01:15:43;99569.69;;;28.52;72.82
46946;BME280;32679;40.810;14.498;2022-08-19T01:18:12;99554.81;;;28.48;73.39
46946;BME280;32679;40.810;14.498;2022-08-19T01:20:38;99540.44;;;28.42;74.08
46946;BME280;32679;40.810;14.498;2022-08-19T01:23:04;99506.31;;;28.39;74.71
46946;BME280;32679;40.810;14.498;2022-08-19T01:25:31;99492.88;;;27.84;62.23
46946;BME280;32679;40.810;14.498;2022-08-19T01:27:57;99496.19;;;27.47;59.47
46946;BME280;32679;40.810;14.498;2022-08-19T01:30:30;99511.59;;;27.35;60.78
46946;BME280;32679;40.810;14.498;2022-08-19T01:32:56;99527.06;;;27.28;61.45
46946;BME280;32679;40.810;14.498;2022-08-19T01:35:23;99526.66;;;27.21;60.18
46946;BME280;32679;40.810;14.498;2022-08-19T01:37:59;99504.50;;;27.30;57.55
46946;BME280;32679;40.810;14.498;2022-08-19T01:40:26;99504.47;;;27.45;56.62
46946;BME280;32679;40.810;14.498;2022-08-19T01:42:52;99509.25;;;27.33;56.42
46946;BME280;32679;40.810;14.498;2022-08-19T01:45:19;99523.38;;;27.42;56.03
46946;BME280;32679;40.810;14.498;2022-08-19T01:47:44;99516.13;;;27.27;57.01
46946;BME280;32679;40.810;14.498;2022-08-19T01:50:11;99504.28;;;27.49;56.41
46946;BME280;32679;40.810;14.498;2022-08-19T01:52:37;99493.81;;;27.60;59.74
46946;BME280;32679;40.810;14.498;2022-08-19T01:55:03;99491.34;;;27.53;59.22
46946;BME280;32679;40.810;14.498;2022-08-19T01:57:28;99508.00;;;27.55;57.70
46946;BME280;32679;40.810;14.498;2022-08-19T01:59:54;99510.78;;;27.49;57.30
46946;BME280;32679;40.810;14.498;2022-08-19T02:02:19;99523.81;;;27.35;57.69
46946;BME280;32679;40.810;14.498;2022-08-19T02:04:48;99521.22;;;27.37;58.04
46946;BME280;32679;40.810;14.498;2022-08-19T02:07:13;99519.75;;;27.42;57.98
46946;BME280;32679;40.810;14.498;2022-08-19T02:09:38;99511.47;;;27.44;58.13
46946;BME280;32679;40.810;14.498;2022-08-19T02:12:04;99513.13;;;27.51;57.68
46946;BME280;32679;40.810;14.498;2022-08-19T02:14:30;99506.91;;;27.52;57.60
46946;BME280;32679;40.810;14.498;2022-08-19T02:16:55;99492.03;;;27.48;57.91
46946;BME280;32679;40.810;14.498;2022-08-19T02:19:21;99479.63;;;27.51;57.79
46946;BME280;32679;40.810;14.498;2022-08-19T02:21:47;99488.50;;;27.53;58.08
46946;BME280;32679;40.810;14.498;2022-08-19T02:24:12;99502.06;;;27.58;58.38
46946;BME280;32679;40.810;14.498;2022-08-19T02:26:38;99502.22;;;27.69;58.15
46946;BME280;32679;40.810;14.498;2022-08-19T02:29:03;99482.66;;;27.62;58.81
46946;BME280;32679;40.810;14.498;2022-08-19T02:31:29;99452.41;;;27.71;58.33
46946;BME280;32679;40.810;14.498;2022-08-19T02:33:55;99457.22;;;27.44;59.74
46946;BME280;32679;40.810;14.498;2022-08-19T02:36:23;99483.13;;;27.40;60.27
46946;BME280;32679;40.810;14.498;2022-08-19T02:38:48;99507.63;;;27.32;60.80
46946;BME280;32679;40.810;14.498;2022-08-19T02:41:16;99508.03;;;27.40;61.54
46946;BME280;32679;40.810;14.498;2022-08-19T02:43:42;99528.72;;;27.50;61.83
46946;BME280;32679;40.810;14.498;2022-08-19T02:46:11;99532.72;;;27.58;64.76
46946;BME280;32679;40.810;14.498;2022-08-19T02:48:37;99531.84;;;27.52;67.00
46946;BME280;32679;40.810;14.498;2022-08-19T02:51:02;99504.28;;;27.49;68.44
46946;BME280;32679;40.810;14.498;2022-08-19T02:53:28;99473.94;;;27.51;68.94
46946;BME280;32679;40.810;14.498;2022-08-19T02:55:53;99475.75;;;27.34;69.76
46946;BME280;32679;40.810;14.498;2022-08-19T02:58:20;99474.56;;;27.26;71.38
46946;BME280;32679;40.810;14.498;2022-08-19T03:00:47;99475.94;;;27.30;71.06
46946;BME280;32679;40.810;14.498;2022-08-19T03:03:13;99484.25;;;27.13;71.85
46946;BME280;32679;40.810;14.498;2022-08-19T03:05:39;99491.31;;;27.03;72.84
46946;BME280;32679;40.810;14.498;2022-08-19T03:08:05;99491.72;;;26.96;72.55
46946;BME280;32679;40.810;14.498;2022-08-19T03:10:31;99492.19;;;26.95;73.18
46946;BME280;32679;40.810;14.498;2022-08-19T03:12:56;99503.03;;;27.20;75.87
46946;BME280;32679;40.810;14.498;2022-08-19T03:15:22;99512.69;;;27.23;77.10
46946;BME280;32679;40.810;14.498;2022-08-19T03:17:49;99517.41;;;27.11;78.10
46946;BME280;32679;40.810;14.498;2022-08-19T03:20:15;99508.44;;;27.03;79.47
46946;BME280;32679;40.810;14.498;2022-08-19T03:22:40;99512.16;;;26.95;80.18
46946;BME280;32679;40.810;14.498;2022-08-19T03:25:06;99519.38;;;26.90;81.34
46946;BME280;32679;40.810;14.498;2022-08-19T03:27:31;99518.56;;;26.89;83.00
46946;BME280;32679;40.810;14.498;2022-08-19T03:29:57;99520.72;;;26.95;84.24
46946;BME280;32679;40.810;14.498;2022-08-19T03:32:22;99526.56;;;26.85;84.91
46946;BME280;32679;40.810;14.498;2022-08-19T03:34:47;99531.25;;;26.88;85.44
46946;BME280;32679;40.810;14.498;2022-08-19T03:37:13;99514.72;;;26.78;86.14
46946;BME280;32679;40.810;14.498;2022-08-19T03:39:38;99502.94;;;26.85;86.69
46946;BME280;32679;40.810;14.498;2022-08-19T03:42:05;99496.31;;;26.79;86.85
46946;BME280;32679;40.810;14.498;2022-08-19T03:44:30;99523.00;;;26.90;86.58
46946;BME280;32679;40.810;14.498;2022-08-19T03:46:58;99522.22;;;26.90;86.97
46946;BME280;32679;40.810;14.498;2022-08-19T03:49:25;99499.84;;;26.74;87.83
46946;BME280;32679;40.810;14.498;2022-08-19T03:51:52;99490.53;;;26.88;87.28
46946;BME280;32679;40.810;14.498;2022-08-19T03:54:18;99475.25;;;26.61;88.44
46946;BME280;32679;40.810;14.498;2022-08-19T03:56:44;99479.28;;;26.55;88.64
46946;BME280;32679;40.810;14.498;2022-08-19T03:59:12;99487.00;;;26.39;89.43
46946;BME280;32679;40.810;14.498;2022-08-19T04:01:38;99503.59;;;26.41;90.69
46946;BME280;32679;40.810;14.498;2022-08-19T04:04:03;99510.50;;;26.34;91.11
46946;BME280;32679;40.810;14.498;2022-08-19T04:06:30;99509.69;;;26.34;91.73
46946;BME280;32679;40.810;14.498;2022-08-19T04:08:56;99516.97;;;26.35;92.43
46946;BME280;32679;40.810;14.498;2022-08-19T04:11:27;99528.38;;;26.35;92.47
46946;BME280;32679;40.810;14.498;2022-08-19T04:13:52;99527.41;;;26.38;93.40
46946;BME280;32679;40.810;14.498;2022-08-19T04:16:18;99499.03;;;26.20;90.48
46946;BME280;32679;40.810;14.498;2022-08-19T04:18:45;99479.59;;;25.94;87.87
46946;BME280;32679;40.810;14.498;2022-08-19T04:21:16;99480.50;;;26.00;89.80
46946;BME280;32679;40.810;14.498;2022-08-19T04:23:41;99507.13;;;25.97;89.60
46946;BME280;32679;40.810;14.498;2022-08-19T04:26:07;99504.56;;;25.99;89.81
46946;BME280;32679;40.810;14.498;2022-08-19T04:28:32;99509.75;;;26.10;90.14
46946;BME280;32679;40.810;14.498;2022-08-19T04:30:57;99519.06;;;26.10;90.44
46946;BME280;32679;40.810;14.498;2022-08-19T04:33:24;99536.66;;;26.33;90.58
46946;BME280;32679;40.810;14.498;2022-08-19T04:35:51;99536.88;;;26.20;86.39
46946;BME280;32679;40.810;14.498;2022-08-19T04:38:17;99547.88;;;26.12;84.54
46946;BME280;32679;40.810;14.498;2022-08-19T04:40:44;99554.47;;;26.19;84.50
46946;BME280;32679;40.810;14.498;2022-08-19T04:43:28;99561.97;;;26.16;84.76
46946;BME280;32679;40.810;14.498;2022-08-19T04:45:54;99575.75;;;26.08;84.12
46946;BME280;32679;40.810;14.498;2022-08-19T04:48:19;99571.75;;;26.15;83.88
46946;BME280;32679;40.810;14.498;2022-08-19T04:50:51;99574.16;;;26.17;80.14
46946;BME280;32679;40.810;14.498;2022-08-19T04:53:29;99564.31;;;26.18;76.84
46946;BME280;32679;40.810;14.498;2022-08-19T04:55:56;99575.72;;;26.18;78.40
46946;BME280;32679;40.810;14.498;2022-08-19T04:58:22;99584.69;;;26.01;82.19
46946;BME280;32679;40.810;14.498;2022-08-19T05:00:51;99597.38;;;26.00;83.24
46946;BME280;32679;40.810;14.498;2022-08-19T05:03:16;99586.38;;;26.08;83.93
46946;BME280;32679;40.810;14.498;2022-08-19T05:05:45;99584.16;;;26.12;80.58
46946;BME280;32679;40.810;14.498;2022-08-19T05:08:13;99592.63;;;25.97;84.40
46946;BME280;32679;40.810;14.498;2022-08-19T05:10:43;99591.41;;;25.89;85.19
46946;BME280;32679;40.810;14.498;2022-08-19T05:13:09;99600.28;;;25.82;86.15
46946;BME280;32679;40.810;14.498;2022-08-19T05:15:35;99605.38;;;25.78;87.46
46946;BME280;32679;40.810;14.498;2022-08-19T05:18:01;99605.34;;;25.87;87.67
46946;BME280;32679;40.810;14.498;2022-08-19T05:20:45;99608.75;;;26.00;86.17
46946;BME280;32679;40.810;14.498;2022-08-19T05:23:29;99609.44;;;25.95;86.48
46946;BME280;32679;40.810;14.498;2022-08-19T05:25:54;99605.81;;;25.85;86.72
46946;BME280;32679;40.810;14.498;2022-08-19T05:28:19;99613.09;;;25.86;87.21
46946;BME280;32679;40.810;14.498;2022-08-19T05:30:45;99618.63;;;25.90;87.41
46946;BME280;32679;40.810;14.498;2022-08-19T05:33:11;99624.34;;;25.90;88.30
46946;BME280;32679;40.810;14.498;2022-08-19T05:35:40;99635.63;;;26.08;88.55
46946;BME280;32679;40.810;14.498;2022-08-19T05:38:06;99627.81;;;26.18;84.49
46946;BME280;32679;40.810;14.498;2022-08-19T05:40:36;99639.59;;;26.35;85.04
46946;BME280;32679;40.810;14.498;2022-08-19T05:43:03;99629.06;;;26.50;83.61
46946;BME280;32679;40.810;14.498;2022-08-19T05:45:28;99637.09;;;26.61;84.13
46946;BME280;32679;40.810;14.498;2022-08-19T05:47:54;99641.72;;;26.58;82.98
46946;BME280;32679;40.810;14.498;2022-08-19T05:50:19;99656.31;;;26.51;83.68
46946;BME280;32679;40.810;14.498;2022-08-19T05:52:44;99659.06;;;26.46;82.49
46946;BME280;32679;40.810;14.498;2022-08-19T05:55:10;99652.72;;;26.42;82.17
46946;BME280;32679;40.810;14.498;2022-08-19T05:57:36;99655.53;;;26.51;82.20
46946;BME280;32679;40.810;14.498;2022-08-19T06:00:02;99651.47;;;26.43;81.21
46946;BME280;32679;40.810;14.498;2022-08-19T06:02:32;99651.97;;;26.65;81.69
46946;BME280;32679;40.810;14.498;2022-08-19T06:04:58;99644.44;;;26.53;81.49
46946;BME280;32679;40.810;14.498;2022-08-19T06:07:23;99633.69;;;26.48;82.41
46946;BME280;32679;40.810;14.498;2022-08-19T06:09:48;99640.72;;;26.37;83.11
46946;BME280;32679;40.810;14.498;2022-08-19T06:12:14;99661.41;;;26.47;83.59
46946;BME280;32679;40.810;14.498;2022-08-19T06:14:39;99665.28;;;26.83;82.87
46946;BME280;32679;40.810;14.498;2022-08-19T06:17:06;99669.03;;;26.89;81.43
46946;BME280;32679;40.810;14.498;2022-08-19T06:19:31;99649.09;;;27.28;79.86
46946;BME280;32679;40.810;14.498;2022-08-19T06:21:57;99656.78;;;27.51;78.82
46946;BME280;32679;40.810;14.498;2022-08-19T06:24:24;99661.19;;;27.52;78.82
46946;BME280;32679;40.810;14.498;2022-08-19T06:26:51;99659.41;;;27.69;78.67
46946;BME280;32679;40.810;14.498;2022-08-19T06:29:18;99652.06;;;27.78;78.70
46946;BME280;32679;40.810;14.498;2022-08-19T06:31:45;99661.91;;;27.77;79.03
46946;BME280;32679;40.810;14.498;2022-08-19T06:34:12;99666.75;;;27.71;80.21
46946;BME280;32679;40.810;14.498;2022-08-19T06:36:42;99666.44;;;27.98;79.70
46946;BME280;32679;40.810;14.498;2022-08-19T06:39:14;99675.91;;;27.75;81.82
46946;BME280;32679;40.810;14.498;2022-08-19T06:41:41;99674.31;;;27.74;82.05
46946;BME280;32679;40.810;14.498;2022-08-19T06:44:07;99668.19;;;27.66;82.12
46946;BME280;32679;40.810;14.498;2022-08-19T06:46:32;99656.38;;;27.58;81.88
46946;BME280;32679;40.810;14.498;2022-08-19T06:48:58;99666.72;;;27.85;81.48
46946;BME280;32679;40.810;14.498;2022-08-19T06:51:23;99669.09;;;28.37;81.13
46946;BME280;32679;40.810;14.498;2022-08-19T06:53:50;99675.59;;;28.73;78.47
46946;BME280;32679;40.810;14.498;2022-08-19T06:56:19;99680.16;;;29.26;76.02
46946;BME280;32679;40.810;14.498;2022-08-19T06:58:46;99682.25;;;29.51;74.02
46946;BME280;32679;40.810;14.498;2022-08-19T07:01:11;99683.53;;;29.50;75.22
46946;BME280;32679;40.810;14.498;2022-08-19T07:03:37;99684.13;;;29.54;73.97
46946;BME280;32679;40.810;14.498;2022-08-19T07:06:07;99684.88;;;29.81;70.29
46946;BME280;32679;40.810;14.498;2022-08-19T07:08:34;99690.78;;;29.71;71.95
46946;BME280;32679;40.810;14.498;2022-08-19T07:11:02;99693.66;;;29.71;71.60
46946;BME280;32679;40.810;14.498;2022-08-19T07:13:27;99689.84;;;29.80;70.27
46946;BME280;32679;40.810;14.498;2022-08-19T07:15:52;99686.34;;;29.70;70.77
46946;BME280;32679;40.810;14.498;2022-08-19T07:18:18;99686.56;;;29.41;71.73
46946;BME280;32679;40.810;14.498;2022-08-19T07:20:44;99688.25;;;29.27;72.04
46946;BME280;32679;40.810;14.498;2022-08-19T07:23:09;99686.47;;;29.30;71.76
46946;BME280;32679;40.810;14.498;2022-08-19T07:25:38;99689.03;;;29.28;71.62
46946;BME280;32679;40.810;14.498;2022-08-19T07:28:04;99692.13;;;29.50;70.32
46946;BME280;32679;40.810;14.498;2022-08-19T07:30:29;99686.38;;;29.50;69.13
46946;BME280;32679;40.810;14.498;2022-08-19T07:32:55;99688.75;;;29.52;70.57
46946;BME280;32679;40.810;14.498;2022-08-19T07:35:21;99688.56;;;29.35;71.07
46946;BME280;32679;40.810;14.498;2022-08-19T07:37:46;99686.06;;;28.96;71.92
46946;BME280;32679;40.810;14.498;2022-08-19T07:40:12;99688.28;;;29.33;70.09
46946;BME280;32679;40.810;14.498;2022-08-19T07:42:38;99686.00;;;29.37;70.37
46946;BME280;32679;40.810;14.498;2022-08-19T07:45:04;99678.81;;;29.47;69.61
46946;BME280;32679;40.810;14.498;2022-08-19T07:47:29;99677.44;;;29.16;69.81
46946;BME280;32679;40.810;14.498;2022-08-19T07:49:55;99682.72;;;29.49;69.82
46946;BME280;32679;40.810;14.498;2022-08-19T07:52:21;99681.25;;;29.54;66.39
46946;BME280;32679;40.810;14.498;2022-08-19T07:54:47;99685.69;;;29.35;67.62
46946;BME280;32679;40.810;14.498;2022-08-19T07:57:14;99675.81;;;29.10;68.39
46946;BME280;32679;40.810;14.498;2022-08-19T07:59:39;99684.44;;;28.75;66.49
46946;BME280;32679;40.810;14.498;2022-08-19T08:02:05;99696.84;;;28.66;67.18
46946;BME280;32679;40.810;14.498;2022-08-19T08:04:31;99690.66;;;28.53;67.65
46946;BME280;32679;40.810;14.498;2022-08-19T08:07:14;99693.28;;;28.36;66.53
46946;BME280;32679;40.810;14.498;2022-08-19T08:09:58;99693.19;;;28.30;65.93
46946;BME280;32679;40.810;14.498;2022-08-19T08:12:26;99693.38;;;28.27;64.54
46946;BME280;32679;40.810;14.498;2022-08-19T08:14:54;99690.38;;;28.51;62.82
46946;BME280;32679;40.810;14.498;2022-08-19T08:17:23;99699.94;;;28.83;61.00
46946;BME280;32679;40.810;14.498;2022-08-19T08:19:49;99712.50;;;28.91;60.63
46946;BME280;32679;40.810;14.498;2022-08-19T08:22:16;99705.31;;;28.95;59.92
46946;BME280;32679;40.810;14.498;2022-08-19T08:25:11;99715.00;;;28.63;59.73
46946;BME280;32679;40.810;14.498;2022-08-19T08:27:37;99720.38;;;28.76;59.49
46946;BME280;32679;40.810;14.498;2022-08-19T08:30:06;99721.72;;;28.60;59.66
46946;BME280;32679;40.810;14.498;2022-08-19T08:32:34;99712.06;;;28.57;58.14
46946;BME280;32679;40.810;14.498;2022-08-19T08:34:59;99719.75;;;28.66;56.97
46946;BME280;32679;40.810;14.498;2022-08-19T08:37:25;99725.97;;;28.85;56.20
46946;BME280;32679;40.810;14.498;2022-08-19T08:39:50;99718.47;;;29.08;54.87
46946;BME280;32679;40.810;14.498;2022-08-19T08:42:37;99732.47;;;28.85;56.53
46946;BME280;32679;40.810;14.498;2022-08-19T08:45:19;99724.66;;;28.45;60.41
46946;BME280;32679;40.810;14.498;2022-08-19T08:47:47;99722.28;;;28.29;61.95
46946;BME280;32679;40.810;14.498;2022-08-19T08:50:32;99719.03;;;28.36;61.88
46946;BME280;32679;40.810;14.498;2022-08-19T08:53:01;99719.91;;;28.12;62.59
46946;BME280;32679;40.810;14.498;2022-08-19T08:55:29;99732.81;;;27.34;65.13
46946;BME280;32679;40.810;14.498;2022-08-19T09:00:24;99754.09;;;27.33;65.92
46946;BME280;32679;40.810;14.498;2022-08-19T09:02:51;99760.47;;;27.96;64.64
46946;BME280;32679;40.810;14.498;2022-08-19T09:05:18;99756.63;;;27.99;63.97
46946;BME280;32679;40.810;14.498;2022-08-19T09:07:49;99752.75;;;28.32;62.58
46946;BME280;32679;40.810;14.498;2022-08-19T09:10:39;99758.50;;;29.02;60.67
46946;BME280;32679;40.810;14.498;2022-08-19T09:15:33;99768.59;;;29.85;55.04
46946;BME280;32679;40.810;14.498;2022-08-19T09:18:01;99759.59;;;29.25;57.11
46946;BME280;32679;40.810;14.498;2022-08-19T09:20:26;99760.84;;;29.65;57.08
46946;BME280;32679;40.810;14.498;2022-08-19T09:22:52;99765.78;;;29.44;57.36
46946;BME280;32679;40.810;14.498;2022-08-19T09:25:18;99765.88;;;29.29;53.64
46946;BME280;32679;40.810;14.498;2022-08-19T09:27:48;99760.97;;;30.34;52.81
46946;BME280;32679;40.810;14.498;2022-08-19T09:30:17;99770.31;;;31.03;52.32
46946;BME280;32679;40.810;14.498;2022-08-19T09:32:43;99771.63;;;31.78;49.61
46946;BME280;32679;40.810;14.498;2022-08-19T09:35:09;99768.03;;;31.18;49.77
46946;BME280;32679;40.810;14.498;2022-08-19T09:37:34;99765.69;;;32.04;48.17
46946;BME280;32679;40.810;14.498;2022-08-19T09:39:59;99765.69;;;32.27;45.60
46946;BME280;32679;40.810;14.498;2022-08-19T09:42:25;99776.97;;;32.42;45.13
46946;BME280;32679;40.810;14.498;2022-08-19T09:44:50;99764.13;;;32.15;44.10
46946;BME280;32679;40.810;14.498;2022-08-19T09:47:15;99754.44;;;32.34;43.73
46946;BME280;32679;40.810;14.498;2022-08-19T09:49:41;99764.84;;;31.70;45.54
46946;BME280;32679;40.810;14.498;2022-08-19T09:52:10;99761.50;;;32.33;44.83
46946;BME280;32679;40.810;14.498;2022-08-19T09:54:36;99756.75;;;32.92;44.08
46946;BME280;32679;40.810;14.498;2022-08-19T09:57:01;99767.53;;;32.47;45.86
46946;BME280;32679;40.810;14.498;2022-08-19T09:59:27;99780.38;;;32.40;45.43
46946;BME280;32679;40.810;14.498;2022-08-19T10:01:52;99775.91;;;32.56;45.23
46946;BME280;32679;40.810;14.498;2022-08-19T10:04:18;99789.22;;;32.93;44.43
46946;BME280;32679;40.810;14.498;2022-08-19T10:06:44;99786.59;;;32.78;43.84
46946;BME280;32679;40.810;14.498;2022-08-19T10:09:15;99787.69;;;32.41;44.53
46946;BME280;32679;40.810;14.498;2022-08-19T10:11:42;99779.28;;;32.54;44.62
46946;BME280;32679;40.810;14.498;2022-08-19T10:14:08;99777.97;;;32.22;45.71
46946;BME280;32679;40.810;14.498;2022-08-19T10:16:33;99771.44;;;32.38;45.35
46946;BME280;32679;40.810;14.498;2022-08-19T10:19:00;99771.94;;;32.65;44.68
46946;BME280;32679;40.810;14.498;2022-08-19T10:21:30;99764.38;;;33.48;41.57
46946;BME280;32679;40.810;14.498;2022-08-19T10:23:56;99777.53;;;33.84;40.77
46946;BME280;32679;40.810;14.498;2022-08-19T10:26:27;99763.66;;;33.30;43.17
46946;BME280;32679;40.810;14.498;2022-08-19T10:28:54;99767.00;;;32.54;44.16
46946;BME280;32679;40.810;14.498;2022-08-19T10:31:22;99766.75;;;32.41;44.35
46946;BME280;32679;40.810;14.498;2022-08-19T10:33:48;99775.34;;;32.63;44.39
46946;BME280;32679;40.810;14.498;2022-08-19T10:36:18;99767.25;;;32.22;44.48
46946;BME280;32679;40.810;14.498;2022-08-19T10:38:45;99783.69;;;31.83;46.03
46946;BME280;32679;40.810;14.498;2022-08-19T10:41:12;99779.91;;;31.43;45.06
46946;BME280;32679;40.810;14.498;2022-08-19T10:43:39;99778.75;;;31.23;46.53
46946;BME280;32679;40.810;14.498;2022-08-19T10:46:08;99789.44;;;31.17;47.63
46946;BME280;32679;40.810;14.498;2022-08-19T10:48:34;99799.03;;;31.03;47.62
46946;BME280;32679;40.810;14.498;2022-08-19T10:51:00;99804.34;;;31.21;48.40
46946;BME280;32679;40.810;14.498;2022-08-19T10:53:44;99798.94;;;31.29;48.38
46946;BME280;32679;40.810;14.498;2022-08-19T10:56:10;99789.84;;;31.53;47.06
46946;BME280;32679;40.810;14.498;2022-08-19T10:58:54;99784.50;;;32.22;45.90
46946;BME280;32679;40.810;14.498;2022-08-19T11:01:20;99788.44;;;31.91;46.00
46946;BME280;32679;40.810;14.498;2022-08-19T11:03:46;99770.38;;;32.64;43.67
46946;BME280;32679;40.810;14.498;2022-08-19T11:06:11;99761.22;;;32.31;44.37
46946;BME280;32679;40.810;14.498;2022-08-19T11:08:37;99759.69;;;32.42;43.47
46946;BME280;32679;40.810;14.498;2022-08-19T11:11:03;99757.53;;;32.70;41.63
46946;BME280;32679;40.810;14.498;2022-08-19T11:13:29;99750.75;;;32.62;38.83
46946;BME280;32679;40.810;14.498;2022-08-19T11:15:56;99748.41;;;32.61;41.33
46946;BME280;32679;40.810;14.498;2022-08-19T11:18:21;99744.75;;;32.66;39.97
46946;BME280;32679;40.810;14.498;2022-08-19T11:20:47;99750.59;;;33.18;38.52
46946;BME280;32679;40.810;14.498;2022-08-19T11:23:12;99743.16;;;33.40;38.37
46946;BME280;32679;40.810;14.498;2022-08-19T11:25:38;99736.31;;;32.79;38.89
46946;BME280;32679;40.810;14.498;2022-08-19T11:28:03;99748.22;;;33.22;38.76
46946;BME280;32679;40.810;14.498;2022-08-19T11:30:30;99746.78;;;32.88;38.40
46946;BME280;32679;40.810;14.498;2022-08-19T11:32:55;99742.34;;;32.75;38.02
46946;BME280;32679;40.810;14.498;2022-08-19T11:35:20;99755.75;;;32.62;38.88
46946;BME280;32679;40.810;14.498;2022-08-19T11:37:48;99751.25;;;32.77;36.30
46946;BME280;32679;40.810;14.498;2022-08-19T11:40:13;99762.50;;;32.75;37.95
46946;BME280;32679;40.810;14.498;2022-08-19T11:42:38;99750.78;;;32.51;38.53
46946;BME280;32679;40.810;14.498;2022-08-19T11:45:23;99758.59;;;32.67;38.93
46946;BME280;32679;40.810;14.498;2022-08-19T11:47:49;99752.06;;;32.67;38.88
46946;BME280;32679;40.810;14.498;2022-08-19T11:50:15;99765.44;;;32.53;38.27
46946;BME280;32679;40.810;14.498;2022-08-19T11:52:41;99758.09;;;32.52;39.35
46946;BME280;32679;40.810;14.498;2022-08-19T11:55:07;99755.78;;;32.39;38.78
46946;BME280;32679;40.810;14.498;2022-08-19T11:57:32;99761.25;;;32.43;37.95
46946;BME280;32679;40.810;14.498;2022-08-19T12:00:00;99745.50;;;32.77;36.79
46946;BME280;32679;40.810;14.498;2022-08-19T12:02:26;99763.84;;;32.63;36.86
46946;BME280;32679;40.810;14.498;2022-08-19T12:04:51;99750.44;;;32.94;36.17
46946;BME280;32679;40.810;14.498;2022-08-19T12:07:17;99756.06;;;33.27;36.38
46946;BME280;32679;40.810;14.498;2022-08-19T12:09:43;99738.59;;;33.14;36.74
46946;BME280;32679;40.810;14.498;2022-08-19T12:12:08;99739.81;;;33.30;35.10
46946;BME280;32679;40.810;14.498;2022-08-19T12:14:34;99746.84;;;33.34;35.69
46946;BME280;32679;40.810;14.498;2022-08-19T12:17:00;99742.16;;;32.28;36.98
46946;BME280;32679;40.810;14.498;2022-08-19T12:19:26;99746.06;;;32.20;35.94
46946;BME280;32679;40.810;14.498;2022-08-19T12:21:52;99743.94;;;32.59;35.62
46946;BME280;32679;40.810;14.498;2022-08-19T12:24:20;99744.47;;;32.64;36.01
46946;BME280;32679;40.810;14.498;2022-08-19T12:26:48;99740.81;;;32.63;35.95
46946;BME280;32679;40.810;14.498;2022-08-19T12:29:13;99737.19;;;32.23;37.70
46946;BME280;32679;40.810;14.498;2022-08-19T12:31:39;99732.69;;;32.28;38.43
46946;BME280;32679;40.810;14.498;2022-08-19T12:34:05;99723.78;;;32.71;37.90
46946;BME280;32679;40.810;14.498;2022-08-19T12:36:30;99728.53;;;32.57;38.30
46946;BME280;32679;40.810;14.498;2022-08-19T12:38:57;99722.69;;;32.91;37.84
46946;BME280;32679;40.810;14.498;2022-08-19T12:41:23;99726.59;;;32.99;37.13
46946;BME280;32679;40.810;14.498;2022-08-19T12:43:48;99720.31;;;32.95;36.80
46946;BME280;32679;40.810;14.498;2022-08-19T12:46:14;99714.91;;;32.52;37.91
46946;BME280;32679;40.810;14.498;2022-08-19T12:48:40;99721.88;;;32.84;36.73
46946;BME280;32679;40.810;14.498;2022-08-19T12:51:11;99717.47;;;32.72;35.85
46946;BME280;32679;40.810;14.498;2022-08-19T12:53:37;99714.66;;;32.55;35.89
46946;BME280;32679;40.810;14.498;2022-08-19T12:56:02;99713.38;;;32.40;36.87
46946;BME280;32679;40.810;14.498;2022-08-19T12:58:28;99715.38;;;32.78;36.60